Time;durP1;ratioP1;P1;durP2;ratioP2;P2;SDS_P1;SDS_P2;PMS_P1;PMS_P2;Temp;Humidity;BMP_temperature;BMP_pressure;BME280_temperature;BME280_humidity;BME280_pressure;Samples;Min_cycle;Max_cycle;Signal;HPM_P1;HPM_P2
2022/10/08 00:00:24;;;;;;;;;;;;;;;11.49;100.00;101413.50;5031707;28;20066;-74
2022/10/08 00:02:51;;;;;;;;;;;;;;;11.45;100.00;101399.50;5026590;28;19921;-74
2022/10/08 00:05:17;;;;;;;;;;;;;;;11.44;100.00;101394.25;5048298;28;20018;-74
2022/10/08 00:07:44;;;;;;;;;;;;;;;11.39;100.00;101394.47;5030776;28;19952;-76
2022/10/08 00:10:10;;;;;;;;;;;;;;;11.36;100.00;101394.56;5045760;28;19933;-73
2022/10/08 00:12:35;;;;;;;;;;;;;;;11.33;100.00;101392.91;5029729;28;20385;-74
2022/10/08 00:15:01;;;;;;;;;;;;;;;11.34;100.00;101383.16;5023909;28;19936;-74
2022/10/08 00:17:27;;;;;;;;;;;;;;;11.31;100.00;101383.28;5031065;28;19929;-75
2022/10/08 00:19:53;;;;;;;;;;;;;;;11.30;100.00;101384.19;5022653;28;19933;-74
2022/10/08 00:22:18;;;;;;;;;;;;;;;11.30;100.00;101384.19;5028171;28;20553;-74
2022/10/08 00:24:45;;;;;;;;;;;;;;;11.27;100.00;101394.00;5029465;28;19948;-74
2022/10/08 00:27:11;;;;;;;;;;;;;;;11.26;100.00;101392.28;5029268;28;19936;-74
2022/10/08 00:29:36;;;;;;;;;;;;;;;11.25;100.00;101398.53;5030481;28;19947;-74
2022/10/08 00:32:02;;;;;;;;;;;;;;;11.24;100.00;101398.56;5010544;28;19925;-74
2022/10/08 00:34:27;;;;;;;;;;;;;;;11.22;100.00;101403.06;5029788;28;19929;-74
2022/10/08 00:36:53;;;;;;;;;;;;;;;11.22;100.00;101408.38;5028550;28;19952;-74
2022/10/08 00:39:20;;;;;;;;;;;;;;;11.23;100.00;101407.44;5022208;28;19933;-74
2022/10/08 00:41:46;;;;;;;;;;;;;;;11.23;100.00;101404.81;5027524;28;19949;-74
2022/10/08 00:44:31;;;;;;;;;;;;;;;11.23;100.00;101400.34;5005583;28;19960;-74
2022/10/08 00:46:56;;;;;;;;;;;;;;;11.23;100.00;101400.34;5029088;28;19925;-74
2022/10/08 00:49:21;;;;;;;;;;;;;;;11.23;100.00;101404.81;5027898;28;19940;-75
2022/10/08 00:51:51;;;;;;;;;;;;;;;11.22;100.00;101392.47;5027535;28;20058;-75
2022/10/08 00:54:17;;;;;;;;;;;;;;;11.21;100.00;101396.91;5026832;28;19937;-74
2022/10/08 00:56:43;;;;;;;;;;;;;;;11.22;100.00;101397.78;5012660;28;20319;-74
2022/10/08 00:59:09;;;;;;;;;;;;;;;11.20;100.00;101392.53;5026345;28;19925;-75
2022/10/08 01:01:35;;;;;;;;;;;;;;;11.20;100.00;101399.59;5028337;28;20364;-74
2022/10/08 01:04:02;;;;;;;;;;;;;;;11.19;100.00;101398.75;5034786;28;19932;-74
2022/10/08 01:06:31;;;;;;;;;;;;;;;11.21;100.00;101409.28;5032962;28;20276;-75
2022/10/08 01:08:56;;;;;;;;;;;;;;;11.19;100.00;101409.34;5027471;28;19956;-74
2022/10/08 01:11:42;;;;;;;;;;;;;;;11.18;100.00;101410.28;5032760;28;20023;-74
2022/10/08 01:14:13;;;;;;;;;;;;;;;11.21;100.00;101401.31;5020750;28;20422;-75
2022/10/08 01:16:54;;;;;;;;;;;;;;;11.20;100.00;101405.78;5028641;28;20668;-75
2022/10/08 01:19:37;;;;;;;;;;;;;;;11.20;100.00;101408.44;5031732;28;19936;-75
2022/10/08 01:22:07;;;;;;;;;;;;;;;11.20;100.00;101407.56;5021564;28;20126;-75
2022/10/08 01:27:25;;;;;;;;;;;;;;;11.17;100.00;101400.59;5029462;28;20019;-75
2022/10/08 01:29:51;;;;;;;;;;;;;;;11.17;100.00;101415.63;5027992;28;19925;-74
2022/10/08 01:32:18;;;;;;;;;;;;;;;11.15;100.00;101418.34;5028327;28;19921;-75
2022/10/08 01:34:45;;;;;;;;;;;;;;;11.14;100.00;101411.31;5027433;28;20157;-74
2022/10/08 01:37:11;;;;;;;;;;;;;;;11.12;100.00;101416.66;5029351;28;20470;-75
2022/10/08 01:39:37;;;;;;;;;;;;;;;11.08;100.00;101414.19;5028190;28;20477;-75
2022/10/08 01:42:02;;;;;;;;;;;;;;;11.05;100.00;101417.81;5048569;28;20055;-75
2022/10/08 01:44:41;;;;;;;;;;;;;;;11.03;100.00;101413.50;5049186;28;19974;-75
2022/10/08 01:47:09;;;;;;;;;;;;;;;10.99;100.00;101408.34;5032415;28;19958;-75
2022/10/08 01:49:44;;;;;;;;;;;;;;;10.94;100.00;101412.06;5001796;28;19976;-74
2022/10/08 01:52:16;;;;;;;;;;;;;;;10.92;100.00;101409.50;5048581;28;20407;-75
2022/10/08 01:54:42;;;;;;;;;;;;;;;10.90;100.00;101408.66;5028983;28;19931;-74
2022/10/08 01:57:09;;;;;;;;;;;;;;;10.86;100.00;101420.31;5026868;28;19924;-75
2022/10/08 01:59:41;;;;;;;;;;;;;;;10.83;100.00;101417.78;5025525;28;21398;-75
2022/10/08 02:02:09;;;;;;;;;;;;;;;10.80;100.00;101418.78;5016073;28;19939;-75
2022/10/08 02:04:38;;;;;;;;;;;;;;;10.79;100.00;101422.31;5016162;28;20055;-75
2022/10/08 02:07:06;;;;;;;;;;;;;;;10.76;100.00;101421.56;5030206;28;20045;-75
2022/10/08 02:09:32;;;;;;;;;;;;;;;10.72;100.00;101411.09;5031283;28;19929;-75
2022/10/08 02:11:57;;;;;;;;;;;;;;;10.70;100.00;101418.25;5032489;28;19932;-75
2022/10/08 02:14:24;;;;;;;;;;;;;;;10.69;100.00;101416.50;5026790;28;19928;-75
2022/10/08 02:17:09;;;;;;;;;;;;;;;10.65;100.00;101419.31;5013649;28;20443;-75
2022/10/08 02:19:46;;;;;;;;;;;;;;;10.60;100.00;101416.84;5013992;28;20758;-75
2022/10/08 02:22:14;;;;;;;;;;;;;;;10.54;100.00;101419.72;5047641;28;20475;-75
2022/10/08 02:24:40;;;;;;;;;;;;;;;10.50;100.00;101418.13;5032387;28;20296;-75
2022/10/08 02:27:07;;;;;;;;;;;;;;;10.45;100.00;101423.56;5027252;28;20394;-75
2022/10/08 02:29:32;;;;;;;;;;;;;;;10.41;100.00;101427.22;5033451;28;19935;-75
2022/10/08 02:32:09;;;;;;;;;;;;;;;10.37;100.00;101426.47;5036510;28;19925;-75
2022/10/08 02:34:36;;;;;;;;;;;;;;;10.36;100.00;101419.44;5028009;28;20031;-74
2022/10/08 02:37:08;;;;;;;;;;;;;;;10.36;100.00;101432.66;5049224;28;19984;-75
2022/10/08 02:39:34;;;;;;;;;;;;;;;10.38;100.00;101437.88;5027169;28;19925;-75
2022/10/08 02:42:00;;;;;;;;;;;;;;;10.40;100.00;101431.63;5026096;28;19971;-75
2022/10/08 02:44:27;;;;;;;;;;;;;;;10.40;100.00;101425.50;5027024;28;20004;-75
2022/10/08 02:46:53;;;;;;;;;;;;;;;10.40;100.00;101436.06;5048805;28;20369;-75
2022/10/08 02:49:23;;;;;;;;;;;;;;;10.38;100.00;101428.19;5012638;28;20314;-75
2022/10/08 02:51:48;;;;;;;;;;;;;;;10.35;100.00;101420.31;5033363;28;19928;-75
2022/10/08 02:54:14;;;;;;;;;;;;;;;10.30;100.00;101433.72;5011000;28;20312;-74
2022/10/08 02:56:45;;;;;;;;;;;;;;;10.27;100.00;101430.31;4993265;28;20406;-74
2022/10/08 02:59:11;;;;;;;;;;;;;;;10.24;100.00;101441.03;5026330;28;19929;-75
2022/10/08 03:01:56;;;;;;;;;;;;;;;10.19;100.00;101428.81;5027207;28;19932;-75
2022/10/08 03:04:48;;;;;;;;;;;;;;;10.16;100.00;101444.81;5029054;28;19982;-75
2022/10/08 03:07:14;;;;;;;;;;;;;;;10.16;100.00;101442.16;5012448;28;19925;-75
2022/10/08 03:09:41;;;;;;;;;;;;;;;10.16;100.00;101451.88;5025458;28;20427;-74
2022/10/08 03:12:06;;;;;;;;;;;;;;;10.14;100.00;101451.06;5014914;28;19968;-74
2022/10/08 03:14:32;;;;;;;;;;;;;;;10.13;100.00;101452.00;5024500;28;20062;-75
2022/10/08 03:16:58;;;;;;;;;;;;;;;10.11;100.00;101448.50;5024778;28;19924;-74
2022/10/08 03:19:24;;;;;;;;;;;;;;;10.10;100.00;101452.06;5024295;28;20467;-74
2022/10/08 03:21:49;;;;;;;;;;;;;;;10.07;100.00;101449.53;5020901;28;19961;-73
2022/10/08 03:24:14;;;;;;;;;;;;;;;10.03;100.00;101465.50;5011400;28;19929;-73
2022/10/08 03:26:40;;;;;;;;;;;;;;;10.01;100.00;101459.41;5029786;28;19964;-73
2022/10/08 03:29:05;;;;;;;;;;;;;;;9.98;100.00;101466.59;5021105;28;20487;-73
2022/10/08 03:31:31;;;;;;;;;;;;;;;9.94;100.00;101459.66;5024460;28;19924;-74
2022/10/08 03:33:56;;;;;;;;;;;;;;;9.89;100.00;101463.34;5026690;28;19925;-74
2022/10/08 03:36:22;;;;;;;;;;;;;;;9.84;100.00;101461.72;5024679;28;19928;-74
2022/10/08 03:38:48;;;;;;;;;;;;;;;9.77;100.00;101461.06;5025682;28;20402;-74
2022/10/08 03:41:13;;;;;;;;;;;;;;;9.70;100.00;101465.69;5028020;28;20032;-73
2022/10/08 03:43:39;;;;;;;;;;;;;;;9.64;100.00;101468.50;5026205;28;21320;-74
2022/10/08 03:46:05;;;;;;;;;;;;;;;9.59;100.00;101471.31;5048395;28;19929;-75
2022/10/08 03:48:31;;;;;;;;;;;;;;;9.56;100.00;101475.81;5011493;28;19951;-74
2022/10/08 03:51:00;;;;;;;;;;;;;;;9.51;100.00;101471.56;5032119;28;20402;-74
2022/10/08 03:53:25;;;;;;;;;;;;;;;9.45;100.00;101477.03;5049151;28;19925;-74
2022/10/08 03:55:51;;;;;;;;;;;;;;;9.43;100.00;101485.94;5009383;28;20316;-75
2022/10/08 03:58:16;;;;;;;;;;;;;;;9.38;100.00;101478.16;5048602;28;19932;-74
2022/10/08 04:00:42;;;;;;;;;;;;;;;9.35;100.00;101481.75;5034256;28;19925;-74
2022/10/08 04:03:08;;;;;;;;;;;;;;;9.32;100.00;101484.47;5021689;28;20513;-74
2022/10/08 04:05:33;;;;;;;;;;;;;;;9.28;100.00;101481.97;5024642;28;19925;-73
2022/10/08 04:07:58;;;;;;;;;;;;;;;9.25;100.00;101488.19;5024606;28;19948;-74
2022/10/08 04:10:24;;;;;;;;;;;;;;;9.22;100.00;101483.88;5025290;28;20408;-74
2022/10/08 04:12:49;;;;;;;;;;;;;;;9.22;100.00;101486.50;5025105;28;19913;-74
2022/10/08 04:15:15;;;;;;;;;;;;;;;9.20;100.00;101483.06;5024881;28;20016;-74
2022/10/08 04:17:40;;;;;;;;;;;;;;;9.19;100.00;101488.38;5024330;28;19936;-75
2022/10/08 04:20:06;;;;;;;;;;;;;;;9.16;100.00;101493.75;5027900;28;20392;-75
2022/10/08 04:22:31;;;;;;;;;;;;;;;9.16;100.00;101488.47;5024291;28;20349;-74
2022/10/08 04:24:57;;;;;;;;;;;;;;;9.16;100.00;101491.13;5001248;28;19956;-74
2022/10/08 04:27:22;;;;;;;;;;;;;;;9.16;100.00;101494.59;5026513;28;20000;-74
2022/10/08 04:29:47;;;;;;;;;;;;;;;9.15;100.00;101494.69;5008725;28;19925;-74
2022/10/08 04:32:13;;;;;;;;;;;;;;;9.13;100.00;101496.47;5030384;28;19929;-74
2022/10/08 04:34:38;;;;;;;;;;;;;;;9.08;100.00;101500.13;5023271;28;19931;-74
2022/10/08 04:37:04;;;;;;;;;;;;;;;9.06;100.00;101494.00;5024630;28;19928;-74
2022/10/08 04:39:31;;;;;;;;;;;;;;;9.02;100.00;101502.94;5017377;28;20377;-74
2022/10/08 04:41:56;;;;;;;;;;;;;;;8.99;100.00;101491.59;5030425;28;20314;-74
2022/10/08 04:44:22;;;;;;;;;;;;;;;8.96;100.00;101497.84;5027724;28;19932;-74
2022/10/08 04:46:47;;;;;;;;;;;;;;;8.92;100.00;101496.19;5031066;28;19935;-74
2022/10/08 04:49:12;;;;;;;;;;;;;;;8.88;100.00;101490.13;5029907;28;19935;-74
2022/10/08 04:51:38;;;;;;;;;;;;;;;8.86;100.00;101502.50;5032493;28;20353;-75
2022/10/08 04:54:03;;;;;;;;;;;;;;;8.83;100.00;101507.88;5029205;28;20034;-75
2022/10/08 04:56:29;;;;;;;;;;;;;;;8.80;100.00;101511.47;5027423;28;19960;-75
2022/10/08 04:58:56;;;;;;;;;;;;;;;8.78;100.00;101513.28;5029511;28;19940;-75
2022/10/08 05:01:21;;;;;;;;;;;;;;;8.75;100.00;101510.72;4992904;28;20024;-74
2022/10/08 05:03:47;;;;;;;;;;;;;;;8.70;100.00;101520.53;5020123;28;22556;-75
2022/10/08 05:06:16;;;;;;;;;;;;;;;8.68;100.00;101517.09;5027521;28;21318;-74
2022/10/08 05:08:41;;;;;;;;;;;;;;;8.65;100.00;101511.88;5046469;28;19932;-74
2022/10/08 05:11:07;;;;;;;;;;;;;;;8.63;100.00;101522.50;5025895;28;19940;-74
2022/10/08 05:13:32;;;;;;;;;;;;;;;8.61;100.00;101523.44;5047637;28;19936;-74
2022/10/08 05:16:01;;;;;;;;;;;;;;;8.58;100.00;101516.47;5029094;28;20009;-75
2022/10/08 05:18:27;;;;;;;;;;;;;;;8.56;100.00;101519.13;5045121;28;19933;-74
2022/10/08 05:20:52;;;;;;;;;;;;;;;8.53;100.00;101521.88;5029476;28;20394;-75
2022/10/08 05:23:17;;;;;;;;;;;;;;;8.52;100.00;101520.13;5045133;28;19933;-73
2022/10/08 05:25:43;;;;;;;;;;;;;;;8.53;100.00;101535.06;5046450;28;19940;-74
2022/10/08 05:28:08;;;;;;;;;;;;;;;8.52;100.00;101533.34;5026450;28;19936;-73
2022/10/08 05:30:34;;;;;;;;;;;;;;;8.50;100.00;101537.72;5028029;28;19968;-73
2022/10/08 05:33:00;;;;;;;;;;;;;;;8.48;100.00;101539.53;5027990;28;20033;-74
2022/10/08 05:35:25;;;;;;;;;;;;;;;8.48;100.00;101538.66;5029908;28;19929;-74
2022/10/08 05:37:50;;;;;;;;;;;;;;;8.48;100.00;101544.81;5024390;28;19928;-74
2022/10/08 05:40:16;;;;;;;;;;;;;;;8.47;100.00;101552.78;5033049;28;19928;-74
2022/10/08 05:42:41;;;;;;;;;;;;;;;8.46;100.00;101551.94;5017786;28;20530;-74
2022/10/08 05:45:07;;;;;;;;;;;;;;;8.42;100.00;101544.97;5051157;28;20359;-74
2022/10/08 05:47:32;;;;;;;;;;;;;;;8.41;100.00;101551.16;5033913;28;19979;-74
2022/10/08 05:49:58;;;;;;;;;;;;;;;8.40;100.00;101557.34;5030614;28;19928;-74
2022/10/08 05:52:25;;;;;;;;;;;;;;;8.38;100.00;101557.38;5032558;28;19951;-74
2022/10/08 05:54:51;;;;;;;;;;;;;;;8.38;100.00;101561.78;5028946;28;21305;-73
2022/10/08 05:57:16;;;;;;;;;;;;;;;8.36;100.00;101567.13;5031642;28;20486;-74
2022/10/08 05:59:42;;;;;;;;;;;;;;;8.36;100.00;101568.88;5031860;28;20519;-74
2022/10/08 06:02:07;;;;;;;;;;;;;;;8.37;100.00;101568.84;5029240;28;19929;-74
2022/10/08 06:04:33;;;;;;;;;;;;;;;8.40;100.00;101573.19;5011275;28;19928;-74
2022/10/08 06:06:58;;;;;;;;;;;;;;;8.44;100.00;101585.38;5012344;28;19933;-75
2022/10/08 06:09:24;;;;;;;;;;;;;;;8.51;100.00;101587.00;5031746;28;20452;-73
2022/10/08 06:11:49;;;;;;;;;;;;;;;8.57;100.00;101591.28;5050194;28;20898;-74
2022/10/08 06:14:19;;;;;;;;;;;;;;;8.63;100.00;101595.53;5049742;28;19933;-74
2022/10/08 06:16:44;;;;;;;;;;;;;;;8.66;100.00;101601.59;5048864;28;19967;-74
2022/10/08 06:19:09;;;;;;;;;;;;;;;8.71;100.00;101608.53;5031933;28;20367;-74
2022/10/08 06:21:35;;;;;;;;;;;;;;;8.73;100.00;101607.59;5027457;28;19955;-73
2022/10/08 06:24:04;;;;;;;;;;;;;;;8.75;100.00;101616.34;5029159;28;19921;-73
2022/10/08 06:26:31;;;;;;;;;;;;;;;8.76;100.00;101620.72;5011488;28;19925;-72
2022/10/08 06:28:56;;;;;;;;;;;;;;;8.77;100.00;101626.88;5015657;28;20372;-73
2022/10/08 06:31:22;;;;;;;;;;;;;;;8.78;100.00;101625.94;5026367;28;20020;-72
2022/10/08 06:33:47;;;;;;;;;;;;;;;8.78;100.00;101631.22;5050246;28;20289;-73
2022/10/08 06:36:14;;;;;;;;;;;;;;;8.80;100.00;101637.34;5033386;28;19933;-73
2022/10/08 06:38:39;;;;;;;;;;;;;;;8.81;100.00;101641.72;5032532;28;19928;-73
2022/10/08 06:41:05;;;;;;;;;;;;;;;8.82;100.00;101643.44;5001149;28;19970;-73
2022/10/08 06:43:30;;;;;;;;;;;;;;;8.83;100.00;101640.75;5027395;28;20268;-73
2022/10/08 06:45:58;;;;;;;;;;;;;;;8.85;100.00;101653.94;5026951;28;19960;-72
2022/10/08 06:48:24;;;;;;;;;;;;;;;8.90;100.00;101649.41;5031871;28;19932;-73
2022/10/08 06:50:56;;;;;;;;;;;;;;;8.96;100.00;101661.59;5033694;28;19931;-73
2022/10/08 06:53:21;;;;;;;;;;;;;;;9.04;100.00;101667.53;5031185;28;19926;-73
2022/10/08 06:55:46;;;;;;;;;;;;;;;9.13;100.00;101668.19;5026915;28;20295;-72
2022/10/08 06:58:12;;;;;;;;;;;;;;;9.20;100.00;101665.34;5031692;28;20258;-72
2022/10/08 07:00:37;;;;;;;;;;;;;;;9.29;100.00;101669.53;5025789;28;20067;-72
2022/10/08 07:03:03;;;;;;;;;;;;;;;9.40;100.00;101676.28;5047462;28;19935;-72
2022/10/08 07:05:28;;;;;;;;;;;;;;;9.50;100.00;101678.63;5024718;28;20015;-73
2022/10/08 07:07:54;;;;;;;;;;;;;;;9.58;100.00;101678.44;5025059;28;19998;-72
2022/10/08 07:10:19;;;;;;;;;;;;;;;9.68;100.00;101688.75;5017601;28;20397;-72
2022/10/08 07:12:45;;;;;;;;;;;;;;;9.77;100.00;101688.50;5029220;28;19929;-72
2022/10/08 07:15:10;;;;;;;;;;;;;;;9.86;100.00;101688.22;5030664;28;19959;-72
2022/10/08 07:17:35;;;;;;;;;;;;;;;9.91;100.00;101704.84;5030964;28;19987;-72
2022/10/08 07:20:01;;;;;;;;;;;;;;;9.92;100.00;101706.56;5031112;28;19933;-72
2022/10/08 07:22:26;;;;;;;;;;;;;;;9.93;100.00;101704.78;5030484;28;19968;-73
2022/10/08 07:24:51;;;;;;;;;;;;;;;9.95;100.00;101699.44;5029439;28;19933;-73
2022/10/08 07:27:17;;;;;;;;;;;;;;;9.97;100.00;101703.78;5030962;28;20263;-72
2022/10/08 07:29:43;;;;;;;;;;;;;;;10.00;100.00;101705.47;5025241;28;19947;-72
2022/10/08 07:32:08;;;;;;;;;;;;;;;10.03;100.00;101716.84;5030314;28;19979;-75
2022/10/08 07:34:33;;;;;;;;;;;;;;;10.07;100.00;101714.13;5025873;28;19978;-72
2022/10/08 07:36:59;;;;;;;;;;;;;;;10.12;100.00;101720.09;5024785;28;20451;-72
2022/10/08 07:39:24;;;;;;;;;;;;;;;10.14;100.00;101721.81;5031876;28;19940;-71
2022/10/08 07:41:49;;;;;;;;;;;;;;;10.21;100.00;101729.56;5029270;28;19929;-72
2022/10/08 07:44:15;;;;;;;;;;;;;;;10.28;100.00;101732.00;5029479;28;19929;-72
2022/10/08 07:46:41;;;;;;;;;;;;;;;10.34;100.00;101746.81;5016370;28;19950;-73
2022/10/08 07:49:07;;;;;;;;;;;;;;;10.40;100.00;101737.84;5025673;28;19924;-72
2022/10/08 07:51:33;;;;;;;;;;;;;;;10.44;100.00;101745.66;5030397;28;19951;-72
2022/10/08 07:53:58;;;;;;;;;;;;;;;10.50;100.00;101738.47;5026838;28;19982;-72
2022/10/08 07:56:24;;;;;;;;;;;;;;;10.57;100.00;101753.25;5030798;28;20530;-72
2022/10/08 07:58:51;;;;;;;;;;;;;;;10.62;100.00;101758.38;5026360;28;19935;-72
2022/10/08 08:01:18;;;;;;;;;;;;;;;10.68;100.00;101763.50;5016647;28;19932;-72
2022/10/08 08:03:43;;;;;;;;;;;;;;;10.71;100.00;101766.91;5025907;28;19995;-72
2022/10/08 08:06:11;;;;;;;;;;;;;;;10.79;100.00;101763.16;5025311;28;20399;-73
2022/10/08 08:08:39;;;;;;;;;;;;;;;10.85;100.00;101771.75;5023390;28;19936;-73
2022/10/08 08:11:05;;;;;;;;;;;;;;;10.93;100.00;101779.47;5023742;28;19936;-73
2022/10/08 08:13:31;;;;;;;;;;;;;;;10.99;100.00;101787.22;5010936;28;20407;-73
2022/10/08 08:16:01;;;;;;;;;;;;;;;11.06;100.00;101784.38;5012194;28;20376;-72
2022/10/08 08:18:27;;;;;;;;;;;;;;;11.15;100.00;101786.72;5030868;28;19936;-73
2022/10/08 08:20:56;;;;;;;;;;;;;;;11.28;100.00;101801.31;5025562;28;19925;-72
2022/10/08 08:23:22;;;;;;;;;;;;;;;11.47;100.00;101800.69;5030465;28;20379;-73
2022/10/08 08:25:47;;;;;;;;;;;;;;;11.63;100.00;101802.81;5029400;28;19929;-72
2022/10/08 08:28:12;;;;;;;;;;;;;;;11.66;100.00;101810.69;5030935;28;19929;-71
2022/10/08 08:30:38;;;;;;;;;;;;;;;11.59;100.00;101811.81;5030958;28;19980;-72
2022/10/08 08:33:03;;;;;;;;;;;;;;;11.50;100.00;101819.13;5010555;28;19951;-72
2022/10/08 08:35:29;;;;;;;;;;;;;;;11.39;100.00;101819.50;5020546;28;20024;-71
2022/10/08 08:37:54;;;;;;;;;;;;;;;11.30;100.00;101818.94;5025852;28;19929;-72
2022/10/08 08:40:20;;;;;;;;;;;;;;;11.20;100.00;101832.50;5037599;28;20362;-71
2022/10/08 08:42:54;;;;;;;;;;;;;;;11.11;100.00;101840.75;5024881;28;19982;-72
2022/10/08 08:45:27;;;;;;;;;;;;;;;11.06;100.00;101842.69;5023825;28;20070;-72
2022/10/08 08:48:04;;;;;;;;;;;;;;;11.04;100.00;101841.84;5026320;28;19929;-71
2022/10/08 08:50:34;;;;;;;;;;;;;;;11.05;100.00;101843.59;5047472;28;19929;-71
2022/10/08 08:53:00;;;;;;;;;;;;;;;11.11;100.00;101843.41;5030458;28;20457;-71
2022/10/08 08:55:32;;;;;;;;;;;;;;;11.24;100.00;101849.16;5025817;28;19924;-71
2022/10/08 08:58:27;;;;;;;;;;;;;;;11.35;100.00;101848.81;5026014;28;19935;-71
2022/10/08 09:00:56;;;;;;;;;;;;;;;11.40;100.00;101844.25;5018093;28;19929;-71
2022/10/08 09:03:24;;;;;;;;;;;;;;;11.40;100.00;101853.03;5031192;28;20394;-71
2022/10/08 09:05:51;;;;;;;;;;;;;;;11.37;100.00;101857.59;5030829;28;19948;-71
2022/10/08 09:08:18;;;;;;;;;;;;;;;11.38;100.00;101859.31;5023847;28;20411;-71
2022/10/08 09:10:43;;;;;;;;;;;;;;;11.39;100.00;101867.22;5046513;28;20012;-71
2022/10/08 09:13:10;;;;;;;;;;;;;;;11.44;100.00;101864.41;5028432;28;19921;-71
2022/10/08 09:15:36;;;;;;;;;;;;;;;11.48;100.00;101866.06;5026751;28;19929;-71
2022/10/08 09:18:02;;;;;;;;;;;;;;;11.54;100.00;101876.47;5034003;28;19998;-71
2022/10/08 09:20:31;;;;;;;;;;;;;;;11.60;100.00;101864.78;5032212;28;19932;-71
2022/10/08 09:22:56;;;;;;;;;;;;;;;11.69;100.00;101884.81;5028229;28;20299;-71
2022/10/08 09:25:27;;;;;;;;;;;;;;;11.77;100.00;101896.03;5019471;28;19924;-71
2022/10/08 09:27:53;;;;;;;;;;;;;;;11.88;100.00;101894.81;5019504;28;20392;-71
2022/10/08 09:30:32;;;;;;;;;;;;;;;11.95;100.00;101899.84;5034283;28;19951;-71
2022/10/08 09:33:02;;;;;;;;;;;;;;;12.03;100.00;101904.03;5032128;28;19929;-71
2022/10/08 09:35:27;;;;;;;;;;;;;;;12.11;100.00;101902.03;5019455;28;19929;-71
2022/10/08 09:37:54;;;;;;;;;;;;;;;12.17;100.00;101911.56;5030149;28;19951;-71
2022/10/08 09:40:21;;;;;;;;;;;;;;;12.23;100.00;101911.34;5048991;28;20383;-72
2022/10/08 09:43:05;;;;;;;;;;;;;;;12.28;100.00;101919.13;5027366;28;19929;-72
2022/10/08 09:45:37;;;;;;;;;;;;;;;12.31;100.00;101924.34;5029526;28;19979;-71
2022/10/08 09:48:16;;;;;;;;;;;;;;;12.32;100.00;101929.59;5025025;28;20140;-72
2022/10/08 09:50:51;;;;;;;;;;;;;;;12.32;100.00;101937.56;5031088;28;19933;-71
2022/10/08 09:53:16;;;;;;;;;;;;;;;12.33;100.00;101933.13;5031978;28;21312;-71
2022/10/08 09:55:47;;;;;;;;;;;;;;;12.33;100.00;101943.75;5048090;28;20354;-70
2022/10/08 09:58:14;;;;;;;;;;;;;;;12.33;100.00;101939.28;5049804;28;19924;-70
2022/10/08 10:00:39;;;;;;;;;;;;;;;12.32;100.00;101947.31;5010792;28;19928;-70
2022/10/08 10:03:05;;;;;;;;;;;;;;;12.33;100.00;101941.94;5034737;28;19939;-71
2022/10/08 10:05:31;;;;;;;;;;;;;;;12.38;100.00;101951.53;5045981;28;20019;-73
2022/10/08 10:07:56;;;;;;;;;;;;;;;12.43;100.00;101952.25;5027642;28;19931;-71
2022/10/08 10:10:26;;;;;;;;;;;;;;;12.46;100.00;101950.34;5049306;28;20307;-71
2022/10/08 10:12:53;;;;;;;;;;;;;;;12.50;100.00;101956.41;5049344;28;20391;-72
2022/10/08 10:15:23;;;;;;;;;;;;;;;12.51;100.00;101952.84;5026696;28;19924;-70
2022/10/08 10:17:56;;;;;;;;;;;;;;;12.55;100.00;101954.47;5028204;28;19928;-73
2022/10/08 10:20:29;;;;;;;;;;;;;;;12.63;100.00;101951.53;5023945;28;20311;-72
2022/10/08 10:22:58;;;;;;;;;;;;;;;12.72;100.00;101963.59;5027689;28;20166;-72
2022/10/08 10:25:42;;;;;;;;;;;;;;;12.74;100.00;101956.44;5032600;28;19972;-72
2022/10/08 10:28:12;;;;;;;;;;;;;;;12.73;100.00;101957.34;5032267;28;19975;-71
2022/10/08 10:30:44;;;;;;;;;;;;;;;12.72;99.40;101960.94;5033590;28;19925;-71
2022/10/08 10:33:12;;;;;;;;;;;;;;;12.74;100.00;101975.03;5029722;28;20335;-72
2022/10/08 10:35:40;;;;;;;;;;;;;;;12.72;98.79;101967.13;5025213;28;20011;-72
2022/10/08 10:38:06;;;;;;;;;;;;;;;12.72;98.96;101974.22;5025229;28;19932;-71
2022/10/08 10:40:42;;;;;;;;;;;;;;;12.71;98.22;101977.81;5025640;28;19925;-72
2022/10/08 10:43:13;;;;;;;;;;;;;;;12.75;99.87;101977.63;5010100;28;19936;-72
2022/10/08 10:45:39;;;;;;;;;;;;;;;12.81;100.00;101984.50;5034156;28;20006;-71
2022/10/08 10:48:08;;;;;;;;;;;;;;;12.92;99.21;101985.91;5028697;28;21857;-69
2022/10/08 10:50:33;;;;;;;;;;;;;;;13.03;99.90;101991.72;5027715;28;19936;-70
2022/10/08 10:52:58;;;;;;;;;;;;;;;13.09;98.94;101985.28;5032124;28;20291;-70
2022/10/08 10:55:27;;;;;;;;;;;;;;;13.17;99.79;101988.50;5035803;28;20047;-72
2022/10/08 10:57:58;;;;;;;;;;;;;;;13.28;97.33;101988.97;5026901;28;19936;-72
2022/10/08 11:00:43;;;;;;;;;;;;;;;13.39;98.27;101990.34;5033259;28;19941;-72
2022/10/08 11:03:08;;;;;;;;;;;;;;;13.52;96.62;101994.28;5032207;28;19924;-71
2022/10/08 11:05:34;;;;;;;;;;;;;;;13.51;93.94;101997.03;5034755;28;20416;-72
2022/10/08 11:08:11;;;;;;;;;;;;;;;13.47;94.22;101998.06;5030081;28;19935;-71
2022/10/08 11:10:39;;;;;;;;;;;;;;;13.43;91.68;102011.47;5027015;28;19931;-71
2022/10/08 11:13:05;;;;;;;;;;;;;;;13.44;94.53;102001.66;5023852;28;19929;-71
2022/10/08 11:15:39;;;;;;;;;;;;;;;13.47;94.35;102006.91;5030959;28;19956;-70
2022/10/08 11:18:08;;;;;;;;;;;;;;;13.47;90.73;102020.22;5030852;28;20438;-71
2022/10/08 11:20:52;;;;;;;;;;;;;;;13.49;94.00;102009.50;5031592;28;19979;-71
2022/10/08 11:23:22;;;;;;;;;;;;;;;13.48;92.86;102013.09;5027411;28;19917;-71
2022/10/08 11:26:00;;;;;;;;;;;;;;;13.48;92.55;102013.09;5047886;28;19940;-71
2022/10/08 11:28:28;;;;;;;;;;;;;;;13.49;92.91;102006.84;5032542;28;20010;-70
2022/10/08 11:31:09;;;;;;;;;;;;;;;13.51;94.17;102023.63;5025994;28;20312;-71
2022/10/08 11:33:35;;;;;;;;;;;;;;;13.51;93.25;102018.31;5033873;28;20284;-71
2022/10/08 11:36:17;;;;;;;;;;;;;;;13.47;93.81;102009.56;5013235;28;19924;-70
2022/10/08 11:38:54;;;;;;;;;;;;;;;13.48;94.85;102013.97;5009222;28;19929;-71
2022/10/08 11:41:22;;;;;;;;;;;;;;;13.50;90.90;102013.91;5044719;28;20277;-72
2022/10/08 11:43:51;;;;;;;;;;;;;;;13.47;91.42;102019.34;5026838;28;19929;-71
2022/10/08 11:46:21;;;;;;;;;;;;;;;13.40;90.72;102010.72;5025890;28;20441;-71
2022/10/08 11:48:48;;;;;;;;;;;;;;;13.35;92.18;102008.22;5016962;28;19990;-72
2022/10/08 11:51:20;;;;;;;;;;;;;;;13.36;93.70;102012.63;5023998;28;19924;-71
2022/10/08 11:54:04;;;;;;;;;;;;;;;13.43;94.76;102018.56;5029147;28;20438;-72
2022/10/08 11:56:29;;;;;;;;;;;;;;;13.45;91.66;102019.34;5031276;28;19929;-72
2022/10/08 11:58:56;;;;;;;;;;;;;;;13.44;91.69;102023.84;5048546;28;19929;-72
2022/10/08 12:01:21;;;;;;;;;;;;;;;13.44;91.59;102017.63;5047381;28;19928;-72
2022/10/08 12:04:06;;;;;;;;;;;;;;;13.47;88.67;102027.31;5031611;28;19967;-71
2022/10/08 12:06:35;;;;;;;;;;;;;;;13.52;90.11;102025.34;5031520;28;19935;-71
2022/10/08 12:09:02;;;;;;;;;;;;;;;13.56;90.47;102026.94;5034103;28;20049;-71
2022/10/08 12:11:31;;;;;;;;;;;;;;;13.58;89.47;102023.31;5030230;28;20015;-71
2022/10/08 12:14:15;;;;;;;;;;;;;;;13.61;89.99;102035.63;5031731;28;19924;-71
2022/10/08 12:16:47;;;;;;;;;;;;;;;13.64;90.99;102035.53;5048156;28;19927;-71
2022/10/08 12:19:31;;;;;;;;;;;;;;;13.69;91.91;102033.53;5027504;28;19959;-71
2022/10/08 12:21:57;;;;;;;;;;;;;;;13.73;90.04;102036.94;5031403;28;19935;-71
2022/10/08 12:24:37;;;;;;;;;;;;;;;13.74;87.96;102035.16;5031096;28;19928;-71
2022/10/08 12:27:15;;;;;;;;;;;;;;;13.79;88.33;102049.13;5029482;28;19928;-72
2022/10/08 12:29:54;;;;;;;;;;;;;;;13.81;86.46;102047.28;5031260;28;19928;-70
2022/10/08 12:32:19;;;;;;;;;;;;;;;13.88;86.73;102054.09;5047344;28;20421;-71
2022/10/08 12:34:45;;;;;;;;;;;;;;;13.95;88.19;102044.91;5014273;28;19935;-71
2022/10/08 12:37:12;;;;;;;;;;;;;;;14.03;88.83;102052.59;5025332;28;19980;-71